Impacts METAR Board
IDs:

KTPL - Temple/Miller Rgnl, TX, US

Updated at: 2200 UTC 29 May 2020
Potential Impact None Slight Moderate High
Time 29/10Z 29/11Z 29/12Z 29/13Z 29/14Z 29/15Z 29/16Z 29/17Z 29/18Z 29/19Z 29/20Z 29/21Z 29/22Z
Temp65 66 66 69 72 75 79 80 82 84 85 85 85
Dewpt65 66 66 66 66 65 67 66 62 58 57 58 59
Altim30.07 30.09 30.10 30.12 30.15 30.15 30.13 30.14 30.13 30.14 30.13 30.13 30.11
VIS10 10 10 10 10 10 10 10 10 10 10 10 10
CIG-- 45 -- -- -- -- -- -- -- -- -- -- --
CoverCLRBKNCLRCLRCLRFEWSCTFEWCLRCLRCLRCLRCLR
FltCatVFRVFRVFRVFRVFRVFRVFRVFRVFRVFRVFRVFRVFR
WX--------------------------
WDir310330350360302030304030402030
WSpd5 6 7 8 9 8 10 9 11 15 14 11 10
WGst-- -- -- -- -- -- -- -- 19 18 22 19 --
Raw hourly METARs
KTPL 290951Z AUTO 31005KT 10SM CLR 18/18 A3007 RMK AO2 SLP173 T01830183
KTPL 291051Z AUTO 33006KT 10SM BKN045 BKN050 19/19 A3009 RMK AO2 SLP180 T01890189
KTPL 291151Z AUTO 35007KT 10SM CLR 19/19 A3010 RMK AO2 SLP186 T01890189 10206 20178 53013
KTPL 291251Z AUTO 36008KT 10SM CLR 21/19 A3012 RMK AO2 SLP192 T02060189
KTPL 291351Z AUTO 03009KT 10SM CLR 22/19 A3015 RMK AO2 SLP200 T02220189
KTPL 291451Z AUTO 02008KT 10SM FEW024 24/18 A3015 RMK AO2 SLP199 T02390183 50014
KTPL 291551Z AUTO 03010KT 10SM SCT026 26/19 A3013 RMK AO2 SLP193 T02610194
KTPL 291651Z AUTO 03009KT 10SM FEW030 27/19 A3014 RMK AO2 SLP196 T02670189
KTPL 291751Z AUTO 04011G19KT 10SM CLR 28/17 A3013 RMK AO2 SLP193 T02780167 10283 20189 56004
KTPL 291851Z AUTO 03015G18KT 10SM CLR 29/14 A3014 RMK AO2 SLP195 T02890144
KTPL 291951Z AUTO 04014G22KT 10SM CLR 29/14 A3013 RMK AO2 SLP192 T02940139
KTPL 292051Z AUTO 02011G19KT 10SM CLR 29/14 A3013 RMK AO2 SLP192 T02940144 58001
KTPL 292151Z AUTO 03010KT 10SM CLR 29/15 A3011 RMK AO2 SLP186 T02940150